createdAt,value
2023-10-23T00:01:01.488Z,7.15
2023-10-23T00:03:30.000Z,9.13
2023-10-23T00:05:58.196Z,8.10
2023-10-23T00:08:26.746Z,7.32
2023-10-23T00:10:56.439Z,6.78
2023-10-23T00:13:24.357Z,7.65
2023-10-23T00:15:52.468Z,7.43
2023-10-23T00:18:20.485Z,7.05
2023-10-23T00:20:49.086Z,8.25
2023-10-23T00:23:16.991Z,7.35
2023-10-23T00:25:44.784Z,8.95
2023-10-23T00:28:14.123Z,9.20
2023-10-23T00:30:42.109Z,7.68
2023-10-23T00:33:10.213Z,8.00
2023-10-23T00:35:38.412Z,7.78
2023-10-23T00:38:06.421Z,9.15
2023-10-23T00:40:34.213Z,8.23
2023-10-23T00:43:14.369Z,7.57
2023-10-23T00:45:47.075Z,7.85
2023-10-23T00:48:15.174Z,7.65
2023-10-23T00:50:43.337Z,7.82
2023-10-23T00:53:11.375Z,7.53
2023-10-23T00:55:39.288Z,8.65
2023-10-23T00:58:07.308Z,7.60
2023-10-23T01:00:38.306Z,7.82
2023-10-23T01:03:06.790Z,6.78
2023-10-23T01:05:35.844Z,8.20
2023-10-23T01:08:03.923Z,7.75
2023-10-23T01:10:31.917Z,7.38
2023-10-23T01:12:59.973Z,8.18
2023-10-23T01:15:28.422Z,8.65
2023-10-23T01:17:57.807Z,7.65
2023-10-23T01:20:25.926Z,7.93
2023-10-23T01:22:56.077Z,8.07
2023-10-23T01:25:26.424Z,7.75
2023-10-23T01:27:54.312Z,8.57
2023-10-23T01:30:22.894Z,8.05
2023-10-23T01:32:51.154Z,7.82
2023-10-23T01:35:20.728Z,8.02
2023-10-23T01:37:48.774Z,8.07
2023-10-23T01:40:17.125Z,8.57
2023-10-23T01:42:48.264Z,8.68
2023-10-23T01:45:16.268Z,7.78
2023-10-23T01:47:44.273Z,8.65
2023-10-23T01:50:12.338Z,8.75
2023-10-23T01:52:42.560Z,8.43
2023-10-23T01:55:10.607Z,8.10
2023-10-23T01:57:38.476Z,8.40
2023-10-23T02:00:11.619Z,8.05
2023-10-23T02:02:43.430Z,7.95
2023-10-23T02:05:11.375Z,8.18
2023-10-23T02:07:39.218Z,8.07
2023-10-23T02:10:08.528Z,8.55
2023-10-23T02:12:36.435Z,9.38
2023-10-23T02:15:05.393Z,8.10
2023-10-23T02:17:34.913Z,8.65
2023-10-23T02:20:03.562Z,8.45
2023-10-23T02:22:31.589Z,8.00
2023-10-23T02:24:59.676Z,7.38
2023-10-23T02:27:27.658Z,8.18
2023-10-23T02:29:56.080Z,9.27
2023-10-23T02:32:23.986Z,7.22
2023-10-23T02:34:53.360Z,8.07
2023-10-23T02:37:21.345Z,7.53
2023-10-23T02:39:49.452Z,8.00
2023-10-23T02:42:17.522Z,7.15
2023-10-23T02:44:45.678Z,8.10
2023-10-23T02:47:13.495Z,8.23
2023-10-23T02:49:41.878Z,8.48
2023-10-23T02:52:11.248Z,7.85
2023-10-23T02:54:39.369Z,8.00
2023-10-23T02:57:08.628Z,7.63
2023-10-23T02:59:36.521Z,7.18
2023-10-23T03:02:05.164Z,7.80
2023-10-23T03:04:35.280Z,7.75
2023-10-23T03:07:03.262Z,7.57
2023-10-23T03:09:32.671Z,7.40
2023-10-23T03:12:00.859Z,7.20
2023-10-23T03:14:28.920Z,7.88
2023-10-23T03:16:56.816Z,7.32
2023-10-23T03:19:26.681Z,7.47
2023-10-23T03:21:55.083Z,7.43
2023-10-23T03:24:23.133Z,7.20
2023-10-23T03:26:52.315Z,6.88
2023-10-23T03:29:20.181Z,7.70
2023-10-23T03:31:48.250Z,8.30
2023-10-23T03:34:17.729Z,8.57
2023-10-23T03:36:46.350Z,7.85
2023-10-23T03:39:14.397Z,7.35
2023-10-23T03:41:43.678Z,9.43
2023-10-23T03:44:13.126Z,7.78
2023-10-23T03:46:42.134Z,7.30
2023-10-23T03:49:11.096Z,7.05
2023-10-23T03:51:38.955Z,7.97
2023-10-23T03:54:07.176Z,8.10
2023-10-23T03:56:35.641Z,7.60
2023-10-23T03:59:04.128Z,8.50
2023-10-23T04:01:33.349Z,8.82
2023-10-23T04:04:01.453Z,9.27
2023-10-23T04:06:29.636Z,9.57
2023-10-23T04:08:58.196Z,11.23
2023-10-23T04:11:27.547Z,11.25
2023-10-23T04:13:55.554Z,12.70
2023-10-23T04:16:23.497Z,12.40
2023-10-23T04:18:52.944Z,12.93
2023-10-23T04:21:22.169Z,11.75
2023-10-23T04:23:50.154Z,13.90
2023-10-23T04:26:18.047Z,13.30
2023-10-23T04:28:46.034Z,11.68
2023-10-23T04:31:13.965Z,11.82
2023-10-23T04:33:41.963Z,15.82
2023-10-23T04:36:11.337Z,14.02
2023-10-23T04:38:39.156Z,13.70
2023-10-23T04:41:07.022Z,16.20
2023-10-23T04:43:36.710Z,16.45
2023-10-23T04:46:04.701Z,14.25
2023-10-23T04:48:33.036Z,16.08
2023-10-23T04:51:01.685Z,14.13
2023-10-23T04:53:31.421Z,15.35
2023-10-23T04:56:00.750Z,15.93
2023-10-23T04:58:28.718Z,16.35
2023-10-23T05:00:57.209Z,14.38
2023-10-23T05:03:25.227Z,14.90
2023-10-23T05:05:53.199Z,13.73
2023-10-23T05:08:21.035Z,15.75
2023-10-23T05:10:50.277Z,13.32
2023-10-23T05:13:18.237Z,13.57
2023-10-23T05:15:46.361Z,11.57
2023-10-23T05:18:14.234Z,11.85
2023-10-23T05:20:42.436Z,11.95
2023-10-23T05:23:10.294Z,12.00
2023-10-23T05:25:38.556Z,12.00
2023-10-23T05:28:07.840Z,12.00
2023-10-23T05:30:35.912Z,12.55
2023-10-23T05:33:04.657Z,11.30
2023-10-23T05:35:32.830Z,12.20
2023-10-23T05:38:00.730Z,12.68
2023-10-23T05:40:28.839Z,10.70
2023-10-23T05:42:56.809Z,9.75
2023-10-23T05:45:26.250Z,11.13
2023-10-23T05:47:54.226Z,14.77
2023-10-23T05:50:22.116Z,10.60
2023-10-23T05:52:49.933Z,10.93
2023-10-23T05:55:17.996Z,11.30
2023-10-23T05:57:46.687Z,10.82
2023-10-23T06:00:16.869Z,12.95
2023-10-23T06:02:46.321Z,10.05
2023-10-23T06:05:14.136Z,10.43
2023-10-23T06:07:42.549Z,11.10
2023-10-23T06:10:11.126Z,9.63
2023-10-23T06:12:39.181Z,11.30
2023-10-23T06:15:09.169Z,10.00
2023-10-23T06:17:37.260Z,9.70
2023-10-23T06:20:07.943Z,11.02
2023-10-23T06:22:35.971Z,11.90
2023-10-23T06:25:05.425Z,10.75
2023-10-23T06:27:33.503Z,8.70
2023-10-23T06:30:01.417Z,10.32
2023-10-23T06:32:29.612Z,9.43
2023-10-23T06:34:57.650Z,9.93
2023-10-23T06:37:26.955Z,10.00
2023-10-23T06:39:55.024Z,10.18
2023-10-23T06:42:23.205Z,13.00
2023-10-23T06:44:51.195Z,9.75
2023-10-23T06:47:19.236Z,10.38
2023-10-23T06:49:47.388Z,11.07
2023-10-23T06:52:15.760Z,10.27
2023-10-23T06:54:45.112Z,11.10
2023-10-23T06:57:13.164Z,10.25
2023-10-23T06:59:41.626Z,9.85
2023-10-23T07:02:10.299Z,11.20
2023-10-23T07:04:38.536Z,9.77
2023-10-23T07:07:17.928Z,9.23
2023-10-23T07:10:00.664Z,10.43
2023-10-23T07:12:29.290Z,9.93
2023-10-23T07:14:57.282Z,10.23
2023-10-23T07:17:25.424Z,10.50
2023-10-23T07:19:53.410Z,11.25
2023-10-23T07:22:22.438Z,11.25
2023-10-23T07:24:50.434Z,12.43
2023-10-23T07:27:19.891Z,13.82
2023-10-23T07:29:48.907Z,13.45
2023-10-23T07:32:17.061Z,12.95
2023-10-23T07:34:45.099Z,11.75
2023-10-23T07:37:19.405Z,11.23
2023-10-23T07:39:48.941Z,11.02
2023-10-23T07:42:16.835Z,11.77
2023-10-23T07:44:46.304Z,11.80
2023-10-23T07:47:14.606Z,10.25
2023-10-23T07:49:42.532Z,8.82
2023-10-23T07:52:10.722Z,9.50
2023-10-23T07:54:38.561Z,8.23
2023-10-23T07:57:06.774Z,9.00
2023-10-23T07:59:34.768Z,8.30
2023-10-23T08:02:04.477Z,8.05
2023-10-23T08:04:33.262Z,8.55
2023-10-23T08:07:02.921Z,8.13
2023-10-23T08:09:30.869Z,7.20
2023-10-23T08:11:58.880Z,7.43
2023-10-23T08:14:26.902Z,8.15
2023-10-23T08:16:55.059Z,7.93
2023-10-23T08:19:24.634Z,6.78
2023-10-23T08:21:53.567Z,7.63
2023-10-23T08:24:21.623Z,6.70
2023-10-23T08:26:49.577Z,8.38
2023-10-23T08:29:17.462Z,8.30
2023-10-23T08:31:45.842Z,9.73
2023-10-23T08:34:14.001Z,8.15
2023-10-23T08:36:43.448Z,9.20
2023-10-23T08:39:11.975Z,9.00
2023-10-23T08:41:42.522Z,10.85
2023-10-23T08:44:11.655Z,12.68
2023-10-23T08:46:40.182Z,10.13
2023-10-23T08:49:08.521Z,11.57
2023-10-23T08:51:36.418Z,10.25
2023-10-23T08:54:12.228Z,9.77
2023-10-23T08:56:41.544Z,8.85
2023-10-23T08:59:12.159Z,9.23
2023-10-23T09:01:40.459Z,10.20
2023-10-23T09:04:11.660Z,10.20
2023-10-23T09:06:40.192Z,8.68
2023-10-23T09:09:10.207Z,9.63
2023-10-23T09:11:44.834Z,10.63
2023-10-23T09:14:13.936Z,10.98
2023-10-23T09:16:42.020Z,11.63
2023-10-23T09:19:10.104Z,9.40
2023-10-23T09:21:38.124Z,9.25
2023-10-23T09:24:07.602Z,11.75
2023-10-23T09:26:37.099Z,10.82
2023-10-23T09:29:04.985Z,9.63
2023-10-23T09:31:33.179Z,10.63
2023-10-23T09:34:02.427Z,10.43
2023-10-23T09:36:32.999Z,9.73
2023-10-23T09:39:02.200Z,10.95
2023-10-23T09:41:31.452Z,10.45
2023-10-23T09:44:01.949Z,10.63
2023-10-23T09:46:31.096Z,11.60
2023-10-23T09:49:03.817Z,10.73
2023-10-23T09:51:38.227Z,12.98
2023-10-23T09:56:37.365Z,10.40
2023-10-23T09:59:09.927Z,14.55
2023-10-23T10:01:39.179Z,11.70
2023-10-23T10:04:13.865Z,13.35
2023-10-23T10:06:44.574Z,13.88
2023-10-23T10:09:14.519Z,11.27
2023-10-23T10:11:45.027Z,11.15
2023-10-23T10:14:14.521Z,13.65
2023-10-23T10:16:42.832Z,8.82
2023-10-23T10:19:11.155Z,9.93
2023-10-23T10:21:46.871Z,13.95
2023-10-23T10:24:15.848Z,9.95
2023-10-23T10:26:43.812Z,8.93
2023-10-23T10:29:12.506Z,11.70
2023-10-23T10:32:11.719Z,8.38
2023-10-23T10:34:56.157Z,10.15
2023-10-23T10:37:27.129Z,12.35
2023-10-23T10:40:06.304Z,10.38
2023-10-23T10:42:39.584Z,9.80
2023-10-23T10:45:18.242Z,8.00
2023-10-23T10:47:53.873Z,9.15
2023-10-23T10:50:39.941Z,10.27
2023-10-23T10:53:10.538Z,8.52
2023-10-23T10:55:38.881Z,8.57
2023-10-23T10:58:07.771Z,8.68
2023-10-23T11:00:39.052Z,8.40
2023-10-23T11:03:09.870Z,8.63
2023-10-23T11:05:39.327Z,8.48
2023-10-23T11:08:10.258Z,9.48
2023-10-23T11:10:38.387Z,9.95
2023-10-23T11:13:06.837Z,10.98
2023-10-23T11:15:35.028Z,8.90
2023-10-23T11:18:03.691Z,9.23
2023-10-23T11:20:33.193Z,10.45
2023-10-23T11:23:01.925Z,8.55
2023-10-23T11:25:30.246Z,10.15
2023-10-23T11:27:58.124Z,9.45
2023-10-23T11:30:27.074Z,8.40
2023-10-23T11:32:55.028Z,12.07
2023-10-23T11:35:24.287Z,7.40
2023-10-23T11:37:53.472Z,8.30
2023-10-23T11:40:23.282Z,6.55
2023-10-23T11:42:55.098Z,6.95
2023-10-23T11:45:23.562Z,8.20
2023-10-23T11:47:52.415Z,7.78
2023-10-23T11:50:22.878Z,11.55
2023-10-23T11:52:51.425Z,7.70
2023-10-23T11:55:21.401Z,10.77
2023-10-23T11:57:52.090Z,10.35
2023-10-23T12:00:22.240Z,8.38
2023-10-23T12:02:50.970Z,8.18
2023-10-23T12:05:20.586Z,11.05
2023-10-23T12:07:50.185Z,11.50
2023-10-23T12:10:20.206Z,6.10
2023-10-23T12:12:49.038Z,10.32
2023-10-23T12:15:17.600Z,11.25
2023-10-23T12:17:45.635Z,9.77
2023-10-23T12:20:15.561Z,11.60
2023-10-23T12:22:44.779Z,8.32
2023-10-23T12:25:13.063Z,8.70
2023-10-23T12:27:42.960Z,9.77
2023-10-23T12:30:15.034Z,12.70
2023-10-23T12:33:17.198Z,13.10
2023-10-23T12:35:32.992Z,10.10
2023-10-23T12:38:00.929Z,12.10
2023-10-23T12:40:31.715Z,11.68
2023-10-23T12:43:03.302Z,11.55
2023-10-23T12:45:31.313Z,9.07
2023-10-23T12:47:59.385Z,11.55
2023-10-23T12:50:27.231Z,10.48
2023-10-23T12:52:55.449Z,10.50
2023-10-23T12:55:23.362Z,9.25
2023-10-23T12:57:51.627Z,11.93
2023-10-23T13:00:21.201Z,10.75
2023-10-23T13:02:49.236Z,9.55
2023-10-23T13:05:17.935Z,11.32
2023-10-23T13:07:46.048Z,7.75
2023-10-23T13:10:14.087Z,12.40
2023-10-23T13:12:42.101Z,10.65
2023-10-23T13:15:10.512Z,7.20
2023-10-23T13:17:39.999Z,8.93
2023-10-23T13:21:29.056Z,7.47
2023-10-23T13:22:59.284Z,7.22
2023-10-23T13:25:27.228Z,6.95
2023-10-23T13:27:57.063Z,7.57
2023-10-23T13:30:25.116Z,6.45
2023-10-23T13:32:54.595Z,9.90
2023-10-23T13:35:22.592Z,8.25
2023-10-23T13:37:50.503Z,7.50
2023-10-23T13:40:22.001Z,9.18
2023-10-23T13:42:50.658Z,6.60
2023-10-23T13:45:18.600Z,6.45
2023-10-23T13:47:46.699Z,6.57
2023-10-23T13:50:16.053Z,7.38
2023-10-23T13:52:42.998Z,7.95
2023-10-23T13:55:12.048Z,8.40
2023-10-23T13:57:40.096Z,9.50
2023-10-23T14:00:10.841Z,9.70
2023-10-23T14:02:41.729Z,9.95
2023-10-23T14:05:10.595Z,11.00
2023-10-23T14:07:39.933Z,13.27
2023-10-23T14:10:08.611Z,15.40
2023-10-23T14:12:36.538Z,15.35
2023-10-23T14:15:06.210Z,11.15
2023-10-23T14:17:36.385Z,12.02
2023-10-23T14:20:04.775Z,12.68
2023-10-23T14:22:32.690Z,13.82
2023-10-23T14:25:02.562Z,13.82
2023-10-23T14:27:30.544Z,10.68
2023-10-23T14:29:58.568Z,13.18
2023-10-23T14:32:26.687Z,10.27
2023-10-23T14:34:55.038Z,15.30
2023-10-23T14:37:22.995Z,13.13
2023-10-23T14:39:51.103Z,14.48
2023-10-23T14:42:20.527Z,26.17
2023-10-23T14:44:48.393Z,21.38
2023-10-23T14:47:16.648Z,25.98
2023-10-23T14:49:44.833Z,19.27
2023-10-23T14:52:13.063Z,13.35
2023-10-23T14:54:41.193Z,14.85
2023-10-23T14:57:09.025Z,14.68
2023-10-23T14:59:38.523Z,14.98
2023-10-23T15:02:06.599Z,15.07
2023-10-23T15:04:37.105Z,15.23
2023-10-23T15:07:06.028Z,15.63
2023-10-23T15:09:33.975Z,12.90
2023-10-23T15:12:01.915Z,13.02
2023-10-23T15:14:29.738Z,10.70
2023-10-23T15:16:59.789Z,10.52
2023-10-23T15:19:27.941Z,14.25
2023-10-23T15:21:56.375Z,12.20
2023-10-23T15:24:24.278Z,13.88
2023-10-23T15:26:52.162Z,13.43
2023-10-23T15:29:20.109Z,13.73
2023-10-23T15:31:48.252Z,13.30
2023-10-23T15:34:17.791Z,11.32
2023-10-23T15:36:46.451Z,11.90
2023-10-23T15:39:14.317Z,9.25
2023-10-23T15:41:42.343Z,14.20
2023-10-23T15:44:10.263Z,11.88
2023-10-23T15:46:38.236Z,13.63
2023-10-23T15:49:05.323Z,12.90
2023-10-23T15:51:34.789Z,13.68
2023-10-23T15:54:02.681Z,11.57
2023-10-23T15:56:30.824Z,12.13
2023-10-23T15:58:59.087Z,9.27
2023-10-23T16:01:27.465Z,13.30
2023-10-23T16:03:55.592Z,11.95
2023-10-23T16:06:23.805Z,10.43
2023-10-23T16:08:53.205Z,10.77
2023-10-23T16:11:21.624Z,11.77
2023-10-23T16:13:49.804Z,12.32
2023-10-23T16:16:18.278Z,13.38
2023-10-23T16:18:46.712Z,10.48
2023-10-23T16:21:15.884Z,12.45
2023-10-23T16:23:44.074Z,12.38
2023-10-23T16:26:13.495Z,12.18
2023-10-23T16:28:41.596Z,11.55
2023-10-23T16:31:15.047Z,11.50
2023-10-23T16:33:43.313Z,9.13
2023-10-23T16:36:11.385Z,14.02
2023-10-23T16:38:39.272Z,12.68
2023-10-23T16:41:07.278Z,12.93
2023-10-23T16:43:41.185Z,12.93
2023-10-23T16:48:37.304Z,12.52
2023-10-23T16:51:06.156Z,13.73
2023-10-23T16:53:35.549Z,10.43
2023-10-23T16:56:04.111Z,15.15
2023-10-23T16:58:32.033Z,13.07
2023-10-23T17:01:06.202Z,12.82
2023-10-23T17:03:36.375Z,14.77
2023-10-23T17:06:07.108Z,13.02
2023-10-23T17:08:35.508Z,15.02
2023-10-23T17:11:07.123Z,14.45
2023-10-23T17:13:35.122Z,13.25
2023-10-23T17:16:05.499Z,14.18
2023-10-23T17:18:34.522Z,16.85
2023-10-23T17:21:03.411Z,14.02
2023-10-23T17:23:32.547Z,13.88
2023-10-23T17:26:00.373Z,16.70
2023-10-23T17:28:28.612Z,16.50
2023-10-23T17:30:57.392Z,19.00
2023-10-23T17:33:26.937Z,15.80
2023-10-23T17:35:55.167Z,17.00
2023-10-23T17:38:23.327Z,16.15
2023-10-23T17:40:51.546Z,16.70
2023-10-23T17:43:20.679Z,14.88
2023-10-23T17:45:48.954Z,16.35
2023-10-23T17:48:17.634Z,14.93
2023-10-23T17:50:47.014Z,18.67
2023-10-23T17:53:15.116Z,18.38
2023-10-23T17:55:43.119Z,18.15
2023-10-23T17:58:11.130Z,18.05
2023-10-23T18:00:40.960Z,18.30
2023-10-23T18:03:09.119Z,17.38
2023-10-23T18:05:37.202Z,18.70
2023-10-23T18:08:06.705Z,18.77
2023-10-23T18:10:36.292Z,18.92
2023-10-23T18:13:05.733Z,19.05
2023-10-23T18:15:33.688Z,18.08
2023-10-23T18:18:01.677Z,18.65
2023-10-23T18:20:29.732Z,18.10
2023-10-23T18:23:00.387Z,20.10
2023-10-23T18:25:29.916Z,19.90
2023-10-23T18:27:57.967Z,20.08
2023-10-23T18:30:26.786Z,18.83
2023-10-23T18:32:54.675Z,18.40
2023-10-23T18:35:22.856Z,18.38
2023-10-23T18:37:50.855Z,20.15
2023-10-23T18:40:19.053Z,17.73
2023-10-23T18:42:48.559Z,18.70
2023-10-23T18:45:16.513Z,17.80
2023-10-23T18:47:44.598Z,17.83
2023-10-23T18:50:12.743Z,17.45
2023-10-23T18:52:40.630Z,17.80
2023-10-23T18:55:10.172Z,19.55
2023-10-23T18:57:38.172Z,19.02
2023-10-23T19:00:10.228Z,18.42
2023-10-23T19:02:38.483Z,19.05
2023-10-23T19:05:07.175Z,20.42
2023-10-23T19:07:35.219Z,18.73
2023-10-23T19:10:03.299Z,18.95
2023-10-23T19:12:31.232Z,17.77
2023-10-23T19:14:59.249Z,18.35
2023-10-23T19:17:39.587Z,22.80
2023-10-23T19:20:10.805Z,17.40
2023-10-23T19:22:39.922Z,19.35
2023-10-23T19:25:09.175Z,20.15
2023-10-23T19:27:37.033Z,16.83
2023-10-23T19:30:05.734Z,17.90
2023-10-23T19:32:35.608Z,20.55
2023-10-23T19:35:04.152Z,18.63
2023-10-23T19:37:33.049Z,18.55
2023-10-23T19:40:01.803Z,18.02
2023-10-23T19:42:37.133Z,17.52
2023-10-23T19:45:05.876Z,17.05
2023-10-23T19:47:36.000Z,18.20
2023-10-23T19:50:06.136Z,17.45
2023-10-23T19:52:36.388Z,18.25
2023-10-23T19:55:42.679Z,20.13
2023-10-23T19:57:53.733Z,18.58
2023-10-23T20:00:23.900Z,18.90
2023-10-23T20:02:53.480Z,19.23
2023-10-23T20:05:21.564Z,18.33
2023-10-23T20:07:50.293Z,19.10
2023-10-23T20:10:19.151Z,18.23
2023-10-23T20:12:47.370Z,19.95
2023-10-23T20:15:15.389Z,17.92
2023-10-23T20:17:43.442Z,17.80
2023-10-23T20:20:13.849Z,20.30
2023-10-23T20:22:41.817Z,21.77
2023-10-23T20:25:10.508Z,17.45
2023-10-23T20:27:38.541Z,18.85
2023-10-23T20:30:07.767Z,18.23
2023-10-23T20:32:35.916Z,18.38
2023-10-23T20:35:05.421Z,17.13
2023-10-23T20:37:35.289Z,16.65
2023-10-23T20:40:05.039Z,17.70
2023-10-23T20:42:33.754Z,18.73
2023-10-23T20:45:02.604Z,15.20
2023-10-23T20:47:30.975Z,16.20
2023-10-23T20:49:59.494Z,14.85
2023-10-23T20:52:27.627Z,15.48
2023-10-23T20:54:57.613Z,14.93
2023-10-23T20:57:26.105Z,16.35
2023-10-23T20:59:53.985Z,14.18
2023-10-23T21:02:21.991Z,14.57
2023-10-23T21:04:49.846Z,16.17
2023-10-23T21:07:18.130Z,15.05
2023-10-23T21:09:46.303Z,14.38
2023-10-23T21:12:15.499Z,13.80
2023-10-23T21:14:47.847Z,14.38
2023-10-23T21:17:15.925Z,14.43
2023-10-23T21:19:43.869Z,14.60
2023-10-23T21:22:12.301Z,15.57
2023-10-23T21:24:40.378Z,14.02
2023-10-23T21:27:08.346Z,13.40
2023-10-23T21:29:37.828Z,15.07
2023-10-23T21:32:06.542Z,15.98
2023-10-23T21:34:34.526Z,14.35
2023-10-23T21:37:02.622Z,13.85
2023-10-23T21:39:37.876Z,11.80
2023-10-23T21:42:06.432Z,11.05
2023-10-23T21:44:34.249Z,13.02
2023-10-23T21:47:03.847Z,11.43
2023-10-23T21:49:34.248Z,11.50
2023-10-23T21:52:02.965Z,11.32
2023-10-23T21:54:31.321Z,10.73
2023-10-23T21:57:21.893Z,10.48
2023-10-23T21:59:49.339Z,9.50
2023-10-23T22:02:19.179Z,8.70
2023-10-23T22:04:47.659Z,8.90
2023-10-23T22:07:15.927Z,9.00
2023-10-23T22:09:44.525Z,10.10
2023-10-23T22:12:13.490Z,7.93
2023-10-23T22:14:42.232Z,8.65
2023-10-23T22:17:10.457Z,9.05
2023-10-23T22:19:40.052Z,8.23
2023-10-23T22:22:08.189Z,7.10
2023-10-23T22:24:36.262Z,6.57
2023-10-23T22:27:04.241Z,7.10
2023-10-23T22:29:32.013Z,6.82
2023-10-23T22:31:59.925Z,6.10
2023-10-23T22:34:28.806Z,6.47
2023-10-23T22:37:46.433Z,6.43
2023-10-23T22:39:46.253Z,4.85
2023-10-23T22:42:14.135Z,4.57
2023-10-23T22:44:42.488Z,3.90
2023-10-23T22:47:10.833Z,4.25
2023-10-23T22:49:39.336Z,5.60
2023-10-23T22:52:09.618Z,4.82
2023-10-23T22:54:38.344Z,6.30
2023-10-23T22:57:08.785Z,4.10
2023-10-23T22:59:37.337Z,2.97
2023-10-23T23:02:05.970Z,3.65
2023-10-23T23:04:35.064Z,2.97
2023-10-23T23:07:04.632Z,3.75
2023-10-23T23:09:34.771Z,3.50
2023-10-23T23:12:03.278Z,3.05
2023-10-23T23:14:31.489Z,3.65
2023-10-23T23:17:03.854Z,2.97
2023-10-23T23:19:33.116Z,2.85
2023-10-23T23:22:06.567Z,5.15
2023-10-23T23:24:36.015Z,4.90
2023-10-23T23:27:04.104Z,3.72
2023-10-23T23:29:32.332Z,4.05
2023-10-23T23:32:00.420Z,2.97
2023-10-23T23:34:28.822Z,3.58
2023-10-23T23:36:56.864Z,3.08
2023-10-23T23:39:25.054Z,3.92
2023-10-23T23:41:54.867Z,2.75
2023-10-23T23:44:22.821Z,3.42
2023-10-23T23:46:50.915Z,3.00
2023-10-23T23:49:18.925Z,3.00
2023-10-23T23:51:46.820Z,2.95
2023-10-23T23:54:14.942Z,3.60
2023-10-23T23:56:42.834Z,3.67
2023-10-23T23:59:12.056Z,3.45
